Terminal Aerodrome Forecast
Issued by NWS

Home | Current Version | Previous Version | Graphics & Text | Print | Product List | Glossary On
Versions: 1 2 3 4 5 6 7 8 9 10 11 12 13 14 15 16 17 18
223
FTUS43 KLSX 241523 AAA
TAFSUS
TAF AMD
KSUS 241523Z 2415/2512 32009KT P6SM BKN025
     FM241800 32009KT P6SM VCSH BKN050
     FM250000 32007KT P6SM BKN060
     FM250400 30006KT P6SM SCT060=

USA.gov is the U.S. government's official web portal to all federal, state and local government web resources and services.